createdAt,value
2022-10-05T00:02:32.294Z,101443.50
2022-10-05T00:05:34.442Z,101439.19
2022-10-05T00:08:36.565Z,101438.62
2022-10-05T00:11:38.108Z,101445.44
2022-10-05T00:14:40.064Z,101443.47
2022-10-05T00:17:43.293Z,101447.81
2022-10-05T00:20:45.755Z,101444.59
2022-10-05T00:23:47.992Z,101452.41
2022-10-05T00:26:55.418Z,101450.72
2022-10-05T00:30:02.893Z,101460.97
2022-10-05T00:33:04.548Z,101465.78
2022-10-05T00:36:07.241Z,101463.56
2022-10-05T00:39:10.063Z,101455.81
2022-10-05T00:42:36.483Z,101465.75
2022-10-05T00:45:44.132Z,101466.31
2022-10-05T00:49:01.028Z,101466.34
2022-10-05T00:52:40.316Z,101458.78
2022-10-05T00:56:04.633Z,101460.91
2022-10-05T00:59:40.097Z,101454.50
2022-10-05T01:03:08.126Z,101448.50
2022-10-05T01:06:36.877Z,101442.09
2022-10-05T01:09:48.243Z,101443.44
2022-10-05T01:12:55.984Z,101451.13
2022-10-05T01:16:25.257Z,101443.34
2022-10-05T01:19:45.701Z,101439.63
2022-10-05T01:22:47.169Z,101444.94
2022-10-05T01:26:27.355Z,101456.16
2022-10-05T01:29:36.855Z,101455.22
2022-10-05T01:32:43.232Z,101443.25
2022-10-05T01:35:56.503Z,101454.44
2022-10-05T01:39:42.331Z,101449.66
2022-10-05T01:43:02.968Z,101453.09
2022-10-05T01:46:32.951Z,101453.19
2022-10-05T01:50:03.063Z,101463.34
2022-10-05T01:53:31.945Z,101466.47
2022-10-05T01:56:51.030Z,101462.28
2022-10-05T02:00:04.754Z,101462.72
2022-10-05T02:03:16.566Z,101466.97
2022-10-05T02:06:25.409Z,101477.56
2022-10-05T02:09:32.102Z,101471.13
2022-10-05T02:12:37.794Z,101480.75
2022-10-05T02:15:46.314Z,101469.41
2022-10-05T02:18:54.865Z,101474.56
2022-10-05T02:22:05.306Z,101474.63
2022-10-05T02:25:13.397Z,101478.16
2022-10-05T02:28:27.239Z,101483.78
2022-10-05T02:31:36.275Z,101485.13
2022-10-05T02:34:43.199Z,101489.38
2022-10-05T02:37:54.420Z,101492.13
2022-10-05T02:41:10.992Z,101489.50
2022-10-05T02:44:26.488Z,101495.25
2022-10-05T02:48:05.948Z,101500.94
2022-10-05T02:51:28.095Z,101516.44
2022-10-05T02:54:48.398Z,101505.75
2022-10-05T02:58:16.247Z,101507.00
2022-10-05T03:01:39.442Z,101501.06
2022-10-05T03:05:16.196Z,101505.06
2022-10-05T03:08:34.434Z,101505.47
2022-10-05T03:12:03.691Z,101504.19
2022-10-05T03:15:40.625Z,101512.75
2022-10-05T03:19:00.818Z,101515.41
2022-10-05T03:22:22.595Z,101510.38
2022-10-05T03:25:39.214Z,101511.34
2022-10-05T03:29:01.917Z,101517.03
2022-10-05T03:32:15.814Z,101511.69
2022-10-05T03:35:28.106Z,101503.50
2022-10-05T03:38:50.097Z,101501.28
2022-10-05T03:42:04.590Z,101496.31
2022-10-05T03:45:27.580Z,101494.34
2022-10-05T03:48:54.538Z,101492.50
2022-10-05T03:52:23.515Z,101497.59
2022-10-05T03:55:42.865Z,101495.91
2022-10-05T03:58:59.567Z,101497.00
2022-10-05T04:02:06.005Z,101489.41
2022-10-05T04:05:30.940Z,101499.38
2022-10-05T04:08:47.901Z,101495.56
2022-10-05T04:12:04.936Z,101500.69
2022-10-05T04:15:19.113Z,101510.44
2022-10-05T04:18:39.177Z,101511.75
2022-10-05T04:22:02.521Z,101500.72
2022-10-05T04:25:37.297Z,101510.09
2022-10-05T04:28:53.890Z,101527.28
2022-10-05T04:32:22.282Z,101527.97
2022-10-05T04:35:54.703Z,101538.44
2022-10-05T04:39:08.541Z,101533.47
2022-10-05T04:42:36.250Z,101535.16
2022-10-05T04:46:29.501Z,101547.22
2022-10-05T04:49:40.399Z,101555.37
2022-10-05T04:52:59.244Z,101554.38
2022-10-05T04:56:12.334Z,101559.09
2022-10-05T04:59:32.007Z,101547.31
2022-10-05T05:03:13.600Z,101554.03
2022-10-05T05:06:17.785Z,101544.34
2022-10-05T05:09:42.598Z,101549.97
2022-10-05T05:13:18.954Z,101558.75
2022-10-05T05:16:23.654Z,101554.75
2022-10-05T05:20:02.526Z,101561.81
2022-10-05T05:23:26.818Z,101558.81
2022-10-05T05:26:49.796Z,101563.13
2022-10-05T05:30:22.493Z,101560.81
2022-10-05T05:33:35.628Z,101565.22
2022-10-05T05:36:55.749Z,101553.75
2022-10-05T05:40:15.821Z,101555.37
2022-10-05T05:43:45.844Z,101554.78
2022-10-05T05:47:03.933Z,101549.91
2022-10-05T05:50:18.085Z,101545.81
2022-10-05T05:53:49.078Z,101544.09
2022-10-05T05:57:08.432Z,101544.25
2022-10-05T06:00:23.328Z,101553.62
2022-10-05T06:03:52.355Z,101561.22
2022-10-05T06:06:58.219Z,101562.94
2022-10-05T06:10:29.488Z,101563.47
2022-10-05T06:13:35.898Z,101568.59
2022-10-05T06:16:46.631Z,101570.06
2022-10-05T06:19:53.721Z,101570.84
2022-10-05T06:23:00.950Z,101577.56
2022-10-05T06:26:20.698Z,101583.19
2022-10-05T06:29:26.114Z,101590.00
2022-10-05T06:33:01.226Z,101596.88
2022-10-05T06:36:33.788Z,101614.19
2022-10-05T06:40:00.945Z,101626.75
2022-10-05T06:43:06.375Z,101630.81
2022-10-05T06:46:14.023Z,101621.16
2022-10-05T06:49:23.560Z,101616.13
2022-10-05T06:52:59.876Z,101627.28
2022-10-05T06:56:41.521Z,101634.44
2022-10-05T07:00:12.629Z,101626.87
2022-10-05T07:03:46.850Z,101643.03
2022-10-05T07:06:58.197Z,101648.75
2022-10-05T07:10:47.881Z,101649.84
2022-10-05T07:13:55.440Z,101646.31
2022-10-05T07:17:34.565Z,101640.22
2022-10-05T07:20:50.201Z,101654.13
2022-10-05T07:24:13.511Z,101663.56
2022-10-05T07:27:21.087Z,101666.66
2022-10-05T07:30:23.047Z,101682.06
2022-10-05T07:33:31.770Z,101695.94
2022-10-05T07:37:06.055Z,101693.84
2022-10-05T07:40:18.534Z,101695.50
2022-10-05T07:44:02.450Z,101696.84
2022-10-05T07:47:18.305Z,101696.38
2022-10-05T07:50:26.742Z,101696.78
2022-10-05T07:53:32.108Z,101694.28
2022-10-05T07:56:40.448Z,101691.69
2022-10-05T08:00:02.093Z,101675.94
2022-10-05T08:03:14.126Z,101684.75
2022-10-05T08:06:34.765Z,101686.44
2022-10-05T08:09:45.792Z,101682.38
2022-10-05T08:13:18.465Z,101683.31
2022-10-05T08:16:25.746Z,101676.94
2022-10-05T08:19:38.796Z,101662.81
2022-10-05T08:22:46.217Z,101661.13
2022-10-05T08:25:50.868Z,101652.97
2022-10-05T08:29:01.116Z,101659.12
2022-10-05T08:32:09.635Z,101647.63
2022-10-05T08:35:24.231Z,101650.63
2022-10-05T08:38:32.885Z,101655.28
2022-10-05T08:41:46.832Z,101648.50
2022-10-05T08:45:13.325Z,101659.16
2022-10-05T08:48:33.713Z,101643.09
2022-10-05T08:51:35.483Z,101636.56
2022-10-05T08:54:55.705Z,101631.28
2022-10-05T08:58:26.014Z,101644.94
2022-10-05T09:01:36.693Z,101651.47
2022-10-05T09:05:06.487Z,101662.47
2022-10-05T09:08:54.044Z,101667.16
2022-10-05T09:12:22.999Z,101660.03
2022-10-05T09:15:33.992Z,101655.06
2022-10-05T09:19:09.710Z,101657.97
2022-10-05T09:22:38.640Z,101660.34
2022-10-05T09:25:59.875Z,101653.63
2022-10-05T09:29:36.906Z,101658.13
2022-10-05T09:33:06.357Z,101651.66
2022-10-05T09:36:47.972Z,101653.25
2022-10-05T09:40:20.363Z,101658.22
2022-10-05T09:43:40.346Z,101659.78
2022-10-05T09:47:10.262Z,101663.69
2022-10-05T09:50:32.989Z,101675.41
2022-10-05T09:53:53.970Z,101671.00
2022-10-05T09:57:14.458Z,101670.44
2022-10-05T10:00:35.371Z,101679.97
2022-10-05T10:04:02.009Z,101680.56
2022-10-05T10:07:25.114Z,101683.25
2022-10-05T10:10:42.137Z,101682.34
2022-10-05T10:17:00.256Z,101669.78
2022-10-05T10:20:35.995Z,101668.84
2022-10-05T10:24:16.935Z,101671.16
2022-10-05T10:27:39.590Z,101682.91
2022-10-05T10:30:52.862Z,101667.66
2022-10-05T10:34:13.404Z,101666.69
2022-10-05T10:37:50.692Z,101665.13
2022-10-05T10:41:11.523Z,101654.78
2022-10-05T10:44:31.918Z,101645.00
2022-10-05T10:47:54.584Z,101645.34
2022-10-05T10:51:04.422Z,101655.72
2022-10-05T10:54:53.332Z,101643.25
2022-10-05T10:58:16.070Z,101649.78
2022-10-05T11:01:47.110Z,101645.16
2022-10-05T11:05:21.228Z,101640.28
2022-10-05T11:08:50.630Z,101638.38
2022-10-05T11:12:34.209Z,101641.66
2022-10-05T11:16:01.250Z,101636.03
2022-10-05T11:19:46.259Z,101640.34
2022-10-05T11:23:15.071Z,101635.75
2022-10-05T11:26:16.540Z,101628.75
2022-10-05T11:29:26.814Z,101630.19
2022-10-05T11:32:44.623Z,101627.44
2022-10-05T11:35:56.085Z,101619.09
2022-10-05T11:39:16.226Z,101627.06
2022-10-05T11:42:35.863Z,101616.16
2022-10-05T11:46:05.572Z,101613.06
2022-10-05T11:49:35.623Z,101611.31
2022-10-05T11:52:45.960Z,101628.69
2022-10-05T11:56:18.382Z,101624.62
2022-10-05T11:59:53.787Z,101620.03
2022-10-05T12:03:31.370Z,101624.34
2022-10-05T12:06:40.823Z,101618.44
2022-10-05T12:10:21.210Z,101631.00
2022-10-05T12:13:52.984Z,101618.03
2022-10-05T12:17:00.204Z,101614.41
2022-10-05T12:20:06.992Z,101613.47
2022-10-05T12:23:52.256Z,101600.53
2022-10-05T12:27:08.047Z,101591.25
2022-10-05T12:30:28.747Z,101586.75
2022-10-05T12:33:51.460Z,101597.47
2022-10-05T12:37:04.786Z,101584.47
2022-10-05T12:40:12.523Z,101591.75
2022-10-05T12:43:20.054Z,101592.59
2022-10-05T12:46:30.245Z,101590.31
2022-10-05T12:49:37.638Z,101578.69
2022-10-05T12:53:05.435Z,101584.41
2022-10-05T12:56:42.781Z,101576.78
2022-10-05T12:59:59.599Z,101575.22
2022-10-05T13:03:16.756Z,101567.41
2022-10-05T13:06:20.976Z,101564.00
2022-10-05T13:09:32.141Z,101569.69
2022-10-05T13:12:49.003Z,101561.94
2022-10-05T13:15:56.674Z,101555.87
2022-10-05T13:19:01.168Z,101555.78
2022-10-05T13:22:27.612Z,101560.06
2022-10-05T13:25:42.483Z,101565.19
2022-10-05T13:28:48.553Z,101556.59
2022-10-05T13:32:27.175Z,101571.31
2022-10-05T13:35:56.798Z,101571.72
2022-10-05T13:39:08.196Z,101563.62
2022-10-05T13:42:15.382Z,101568.66
2022-10-05T13:45:21.478Z,101567.69
2022-10-05T13:48:41.778Z,101556.22
2022-10-05T13:51:46.224Z,101552.06
2022-10-05T13:55:06.159Z,101553.84
2022-10-05T13:58:23.136Z,101556.69
2022-10-05T14:01:41.775Z,101549.63
2022-10-05T14:04:45.056Z,101551.47
2022-10-05T14:08:15.695Z,101544.06
2022-10-05T14:11:37.055Z,101550.31
2022-10-05T14:14:47.725Z,101554.28
2022-10-05T14:17:51.751Z,101545.03
2022-10-05T14:21:08.789Z,101549.41
2022-10-05T14:24:44.497Z,101546.31
2022-10-05T14:28:28.683Z,101548.03
2022-10-05T14:31:36.183Z,101549.06
2022-10-05T14:34:54.971Z,101553.09
2022-10-05T14:38:01.071Z,101546.03
2022-10-05T14:41:09.601Z,101548.09
2022-10-05T14:44:11.287Z,101547.34
2022-10-05T14:47:24.059Z,101541.41
2022-10-05T14:50:29.653Z,101543.16
2022-10-05T14:53:57.050Z,101546.31
2022-10-05T14:57:07.712Z,101551.75
2022-10-05T15:00:12.517Z,101555.34
2022-10-05T15:03:46.923Z,101553.50
2022-10-05T15:07:04.449Z,101560.31
2022-10-05T15:10:26.931Z,101555.84
2022-10-05T15:13:33.087Z,101555.75
2022-10-05T15:16:39.368Z,101545.31
2022-10-05T15:19:54.506Z,101556.75
2022-10-05T15:23:11.329Z,101561.63
2022-10-05T15:26:47.073Z,101553.22
2022-10-05T15:30:18.200Z,101546.63
2022-10-05T15:33:46.708Z,101543.09
2022-10-05T15:37:03.124Z,101536.41
2022-10-05T15:40:08.590Z,101532.75
2022-10-05T15:43:22.940Z,101533.22
2022-10-05T15:46:35.615Z,101534.03
2022-10-05T15:50:04.199Z,101547.94
2022-10-05T15:53:13.574Z,101546.84
2022-10-05T15:56:22.280Z,101537.03
2022-10-05T15:59:30.580Z,101539.44
2022-10-05T16:02:59.482Z,101545.63
2022-10-05T16:06:45.221Z,101552.81
2022-10-05T16:10:02.273Z,101549.81
2022-10-05T16:13:22.483Z,101546.34
2022-10-05T16:16:43.125Z,101549.19
2022-10-05T16:19:54.100Z,101553.84
2022-10-05T16:23:26.565Z,101555.22
2022-10-05T16:26:43.619Z,101552.78
2022-10-05T16:30:13.786Z,101564.34
2022-10-05T16:33:18.367Z,101564.56
2022-10-05T16:36:41.107Z,101572.25
2022-10-05T16:40:11.282Z,101571.78
2022-10-05T16:43:34.274Z,101575.97
2022-10-05T16:46:52.586Z,101574.34
2022-10-05T16:50:17.727Z,101571.06
2022-10-05T16:53:24.298Z,101576.81
2022-10-05T16:56:34.234Z,101578.97
2022-10-05T17:00:08.101Z,101577.88
2022-10-05T17:03:12.733Z,101576.78
2022-10-05T17:06:33.230Z,101591.44
2022-10-05T17:09:43.976Z,101594.88
2022-10-05T17:13:02.642Z,101592.78
2022-10-05T17:16:22.854Z,101590.16
2022-10-05T17:19:50.543Z,101592.06
2022-10-05T17:22:58.045Z,101579.84
2022-10-05T17:26:27.192Z,101594.44
2022-10-05T17:29:31.206Z,101595.34
2022-10-05T17:32:36.569Z,101598.34
2022-10-05T17:36:03.263Z,101595.69
2022-10-05T17:39:43.936Z,101585.47
2022-10-05T17:42:46.564Z,101599.81
2022-10-05T17:45:51.628Z,101594.34
2022-10-05T17:48:56.442Z,101593.13
2022-10-05T17:52:32.431Z,101592.44
2022-10-05T17:55:34.234Z,101600.56
2022-10-05T17:58:35.693Z,101593.91
2022-10-05T18:01:40.541Z,101600.78
2022-10-05T18:05:05.119Z,101602.53
2022-10-05T18:08:12.860Z,101599.00
2022-10-05T18:11:33.519Z,101597.19
2022-10-05T18:15:14.181Z,101600.56
2022-10-05T18:18:36.132Z,101602.09
2022-10-05T18:21:38.907Z,101594.53
2022-10-05T18:24:45.306Z,101597.16
2022-10-05T18:28:06.562Z,101589.63
2022-10-05T18:31:46.509Z,101595.13
2022-10-05T18:35:02.241Z,101590.00
2022-10-05T18:38:26.543Z,101595.16
2022-10-05T18:42:07.367Z,101594.00
2022-10-05T18:45:29.672Z,101594.00
2022-10-05T18:48:48.828Z,101588.88
2022-10-05T18:51:59.549Z,101581.25
2022-10-05T18:55:20.764Z,101589.87
2022-10-05T18:58:52.058Z,101581.94
2022-10-05T19:02:12.014Z,101578.75
2022-10-05T19:05:47.111Z,101586.16
2022-10-05T19:09:27.728Z,101586.56
2022-10-05T19:12:49.480Z,101594.22
2022-10-05T19:16:00.050Z,101593.69
2022-10-05T19:19:29.347Z,101592.28
2022-10-05T19:22:52.426Z,101601.53
2022-10-05T19:26:03.765Z,101608.81
2022-10-05T19:29:19.374Z,101602.97
2022-10-05T19:32:42.521Z,101604.44
2022-10-05T19:36:16.784Z,101605.34
2022-10-05T19:39:54.180Z,101605.72
2022-10-05T19:42:56.330Z,101606.47
2022-10-05T19:46:08.684Z,101600.53
2022-10-05T19:49:13.220Z,101609.25
2022-10-05T19:52:48.986Z,101615.94
2022-10-05T19:55:55.467Z,101614.03
2022-10-05T19:59:09.580Z,101616.66
2022-10-05T20:02:15.818Z,101614.69
2022-10-05T20:05:18.189Z,101620.34
2022-10-05T20:08:21.749Z,101624.91
2022-10-05T20:11:31.759Z,101623.91
2022-10-05T20:14:58.562Z,101633.53
2022-10-05T20:18:58.489Z,101638.16
2022-10-05T20:22:32.839Z,101636.03
2022-10-05T20:25:37.355Z,101632.63
2022-10-05T20:28:39.395Z,101629.59
2022-10-05T20:31:41.173Z,101641.38
2022-10-05T20:34:44.712Z,101639.53
2022-10-05T20:37:46.468Z,101638.84
2022-10-05T20:40:48.670Z,101637.34
2022-10-05T20:43:50.657Z,101637.44
2022-10-05T20:46:55.209Z,101635.41
2022-10-05T20:49:57.269Z,101646.31
2022-10-05T20:52:58.822Z,101641.09
2022-10-05T20:56:04.809Z,101637.22
2022-10-05T20:59:06.474Z,101637.16
2022-10-05T21:02:08.068Z,101638.94
2022-10-05T21:05:10.118Z,101640.84
2022-10-05T21:08:11.988Z,101646.69
2022-10-05T21:11:14.526Z,101635.62
2022-10-05T21:14:16.575Z,101638.94
2022-10-05T21:17:20.200Z,101640.19
2022-10-05T21:20:22.176Z,101631.09
2022-10-05T21:23:23.728Z,101632.12
2022-10-05T21:26:25.660Z,101638.94
2022-10-05T21:29:27.956Z,101629.69
2022-10-05T21:32:29.612Z,101636.34
2022-10-05T21:35:31.530Z,101635.69
2022-10-05T21:38:33.143Z,101629.91
2022-10-05T21:41:34.726Z,101634.94
2022-10-05T21:44:36.601Z,101624.62
2022-10-05T21:47:38.209Z,101626.91
2022-10-05T21:50:40.444Z,101629.63
2022-10-05T21:53:47.715Z,101628.81
2022-10-05T21:56:55.889Z,101631.47
2022-10-05T21:59:57.522Z,101623.87
2022-10-05T22:02:59.419Z,101631.69
2022-10-05T22:06:01.333Z,101628.47
2022-10-05T22:09:04.462Z,101623.06
2022-10-05T22:12:06.468Z,101620.88
2022-10-05T22:15:09.773Z,101617.47
2022-10-05T22:18:17.290Z,101616.56
2022-10-05T22:21:21.343Z,101615.12
2022-10-05T22:24:22.919Z,101613.94
2022-10-05T22:27:27.006Z,101610.91
2022-10-05T22:30:29.411Z,101616.94
2022-10-05T22:33:31.540Z,101611.84
2022-10-05T22:36:37.643Z,101614.03
2022-10-05T22:39:40.504Z,101609.19
2022-10-05T22:42:42.506Z,101603.63
2022-10-05T22:45:44.557Z,101607.66
2022-10-05T22:48:46.149Z,101601.47
2022-10-05T22:51:49.232Z,101597.91
2022-10-05T22:54:51.057Z,101596.41
2022-10-05T22:57:52.998Z,101607.06
2022-10-05T23:00:58.440Z,101610.34
2022-10-05T23:04:00.733Z,101602.44
2022-10-05T23:07:02.939Z,101604.16
2022-10-05T23:10:07.188Z,101614.91
2022-10-05T23:13:09.001Z,101608.84
2022-10-05T23:16:13.488Z,101606.63
2022-10-05T23:19:15.697Z,101595.63
2022-10-05T23:22:17.489Z,101597.91
2022-10-05T23:25:19.427Z,101587.56
2022-10-05T23:28:21.059Z,101583.81
2022-10-05T23:31:26.050Z,101585.03
2022-10-05T23:34:27.626Z,101579.78
2022-10-05T23:37:29.523Z,101578.66
2022-10-05T23:40:31.217Z,101590.38
2022-10-05T23:43:33.453Z,101580.91
2022-10-05T23:46:35.054Z,101588.59
2022-10-05T23:49:36.615Z,101593.69
2022-10-05T23:52:38.634Z,101587.72
2022-10-05T23:55:40.221Z,101576.97
2022-10-05T23:58:42.022Z,101587.81
